TimeMDT,TemperatureF,Dew PointF,Humidity,Sea Level PressureIn,VisibilityMPH,Wind Direction,Wind SpeedMPH,Gust SpeedMPH,PrecipitationIn,Events,Conditions,WindDirDegrees,DateUTC
12:53 AM,53.1,44.1,71,30.14,10.0,North,11.5,-,N/A,,Clear,360,2013-07-16 06:53:00
1:53 AM,52.0,44.1,74,30.16,10.0,North,3.5,-,N/A,,Clear,360,2013-07-16 07:53:00
2:53 AM,50.0,43.0,77,30.17,10.0,Calm,Calm,-,N/A,,Clear,0,2013-07-16 08:53:00
3:53 AM,48.9,43.0,80,30.19,10.0,Calm,Calm,-,N/A,,Clear,0,2013-07-16 09:53:00
4:53 AM,48.0,42.1,80,30.19,10.0,Calm,Calm,-,N/A,,Clear,0,2013-07-16 10:53:00
5:53 AM,48.0,42.1,80,30.22,10.0,Calm,Calm,-,N/A,,Clear,0,2013-07-16 11:53:00
6:53 AM,52.0,44.1,74,30.22,10.0,Calm,Calm,-,N/A,,Clear,0,2013-07-16 12:53:00
7:53 AM,55.0,44.1,67,30.24,10.0,East,4.6,-,N/A,,Clear,80,2013-07-16 13:53:00
8:53 AM,57.0,43.0,59,30.26,10.0,NE,5.8,-,N/A,,Clear,50,2013-07-16 14:53:00
9:53 AM,59.0,44.1,58,30.25,10.0,ENE,8.1,-,N/A,,Clear,60,2013-07-16 15:53:00
10:53 AM,62.1,43.0,50,30.24,10.0,NE,6.9,-,N/A,,Clear,50,2013-07-16 16:53:00
11:53 AM,66.0,43.0,43,30.22,10.0,Variable,5.8,-,N/A,,Clear,0,2013-07-16 17:53:00
12:53 PM,69.1,43.0,39,30.20,10.0,ENE,10.4,16.1,N/A,,Clear,70,2013-07-16 18:53:00
1:53 PM,71.1,44.1,38,30.19,10.0,NNE,8.1,-,N/A,,Clear,20,2013-07-16 19:53:00
2:53 PM,73.9,46.0,37,30.17,10.0,Variable,5.8,-,N/A,,Clear,0,2013-07-16 20:53:00
3:53 PM,75.9,46.9,36,30.15,10.0,NE,8.1,-,N/A,,Clear,50,2013-07-16 21:53:00
4:53 PM,77.0,46.9,34,30.13,10.0,NE,10.4,18.4,N/A,,Clear,50,2013-07-16 22:53:00
5:53 PM,77.0,48.0,36,30.11,10.0,NNE,9.2,-,N/A,,Clear,30,2013-07-16 23:53:00
6:53 PM,77.0,48.0,36,30.09,10.0,NE,15.0,-,N/A,,Clear,40,2013-07-17 00:53:00
7:53 PM,73.0,48.0,41,30.10,10.0,NE,17.3,23.0,N/A,,Clear,50,2013-07-17 01:53:00
8:53 PM,71.1,45.0,39,30.11,10.0,NE,13.8,-,N/A,,Clear,40,2013-07-17 02:53:00
9:53 PM,68.0,45.0,43,30.11,10.0,NNE,11.5,-,N/A,,Clear,30,2013-07-17 03:53:00
10:53 PM,64.0,46.0,52,30.12,10.0,NE,6.9,-,N/A,,Clear,40,2013-07-17 04:53:00
11:53 PM,66.0,48.0,52,30.11,10.0,East,8.1,-,N/A,,Clear,90,2013-07-17 05:53:00